Time;durP1;ratioP1;P1;durP2;ratioP2;P2;SDS_P1;SDS_P2;PMS_P1;PMS_P2;Temp;Humidity;BMP_temperature;BMP_pressure;BME280_temperature;BME280_humidity;BME280_pressure;Samples;Min_cycle;Max_cycle;Signal;HPM_P1;HPM_P2
2024/01/20 00:02:22;;;;;;;13.30;3.22;;;;;;;;;;5028020;28;20038;-63
2024/01/20 00:04:48;;;;;;;18.85;3.40;;;;;;;;;;5029371;28;20044;-63
2024/01/20 00:07:14;;;;;;;11.98;3.10;;;;;;;;;;5025477;28;20037;-63
2024/01/20 00:09:40;;;;;;;11.60;3.33;;;;;;;;;;5028760;28;20044;-64
2024/01/20 00:12:06;;;;;;;13.32;3.55;;;;;;;;;;5030076;28;20416;-64
2024/01/20 00:14:32;;;;;;;12.45;2.90;;;;;;;;;;5029580;28;20030;-64
2024/01/20 00:16:58;;;;;;;13.95;2.97;;;;;;;;;;5029151;28;20060;-63
2024/01/20 00:19:24;;;;;;;11.25;3.22;;;;;;;;;;5028038;28;20044;-63
2024/01/20 00:21:50;;;;;;;10.30;2.83;;;;;;;;;;5028915;28;20049;-63
2024/01/20 00:24:16;;;;;;;11.40;2.95;;;;;;;;;;5029500;28;20116;-64
2024/01/20 00:26:42;;;;;;;10.90;3.25;;;;;;;;;;5028865;28;20040;-63
2024/01/20 00:29:08;;;;;;;10.02;3.22;;;;;;;;;;5008649;28;20029;-63
2024/01/20 00:31:34;;;;;;;12.32;3.42;;;;;;;;;;5028331;28;20037;-64
2024/01/20 00:34:00;;;;;;;11.60;3.33;;;1.90;99.90;;;;;;5021875;28;20489;-63
2024/01/20 00:36:26;;;;;;;12.30;3.42;;;;;;;;;;5029541;28;20052;-63
2024/01/20 00:38:52;;;;;;;13.63;5.13;;;;;;;;;;5028602;28;20627;-63
2024/01/20 00:41:18;;;;;;;8.95;3.30;;;;;;;;;;5028751;28;20048;-64
2024/01/20 00:43:44;;;;;;;8.15;3.45;;;1.90;99.90;;;;;;5027550;28;20044;-64
2024/01/20 00:46:10;;;;;;;6.47;2.40;;;;;;;;;;5027655;28;20485;-63
2024/01/20 00:48:36;;;;;;;8.73;3.25;;;;;;;;;;5027870;28;20044;-63
2024/01/20 00:51:02;;;;;;;8.68;2.97;;;;;;;;;;5026087;28;20416;-63
2024/01/20 00:53:28;;;;;;;11.07;2.85;;;;;;;;;;5028417;28;20042;-63
2024/01/20 00:55:54;;;;;;;11.68;3.17;;;;;;;;;;5026275;28;20045;-63
2024/01/20 00:58:20;;;;;;;12.32;3.30;;;;;;;;;;5032901;28;20061;-64
2024/01/20 01:00:45;;;;;;;10.43;3.53;;;1.80;99.90;;;;;;5026590;28;20129;-63
2024/01/20 01:03:11;;;;;;;10.88;3.38;;;;;;;;;;5028355;28;20457;-65
2024/01/20 01:05:37;;;;;;;12.15;3.75;;;;;;;;;;5028345;28;20030;-63
2024/01/20 01:08:03;;;;;;;10.07;3.20;;;;;;;;;;5028420;28;20264;-63
2024/01/20 01:10:29;;;;;;;10.65;4.22;;;;;;;;;;5028417;28;20071;-63
2024/01/20 01:12:55;;;;;;;8.90;2.80;;;1.70;99.90;;;;;;5030213;28;20104;-63
2024/01/20 01:15:21;;;;;;;11.10;2.92;;;;;;;;;;5010821;28;20034;-64
2024/01/20 01:17:47;;;;;;;14.05;3.42;;;;;;;;;;5028153;28;20037;-63
2024/01/20 01:20:12;;;;;;;9.23;2.95;;;1.80;99.90;;;;;;5028708;28;20040;-63
2024/01/20 01:22:38;;;;;;;12.70;4.03;;;;;;;;;;5032126;28;20128;-65
2024/01/20 01:25:05;;;;;;;9.80;2.90;;;;;;;;;;5032092;28;20120;-63
2024/01/20 01:27:31;;;;;;;15.35;4.50;;;;;;;;;;5032225;28;20116;-63
2024/01/20 01:29:57;;;;;;;12.13;3.00;;;;;;;;;;5037912;28;20489;-63
2024/01/20 01:32:25;;;;;;;6.90;2.78;;;;;;;;;;5029008;28;20125;-63
2024/01/20 01:34:51;;;;;;;11.25;3.90;;;;;;;;;;5031788;28;20046;-63
2024/01/20 01:37:17;;;;;;;9.00;2.75;;;;;;;;;;5032403;28;20497;-63
2024/01/20 01:39:43;;;;;;;11.68;3.83;;;1.90;99.90;;;;;;5031649;28;20041;-63
2024/01/20 01:42:09;;;;;;;14.65;4.50;;;;;;;;;;5031360;28;20037;-63
2024/01/20 01:44:35;;;;;;;15.82;4.05;;;1.90;99.90;;;;;;5031390;28;20127;-63
2024/01/20 01:47:01;;;;;;;14.35;3.75;;;1.70;99.90;;;;;;5031395;28;20489;-64
2024/01/20 01:49:27;;;;;;;12.93;3.97;;;;;;;;;;5031976;28;20500;-65
2024/01/20 01:51:53;;;;;;;16.63;3.85;;;;;;;;;;5030334;28;20064;-65
2024/01/20 01:54:19;;;;;;;14.15;4.35;;;;;;;;;;5032184;28;20045;-63
2024/01/20 01:56:47;;;;;;;14.35;4.22;;;;;;;;;;5037506;28;20072;-64
2024/01/20 01:59:13;;;;;;;10.65;3.15;;;;;;;;;;5014480;28;20045;-63
2024/01/20 02:01:39;;;;;;;11.20;3.83;;;;;;;;;;5029997;28;20075;-64
2024/01/20 02:04:05;;;;;;;11.25;4.30;;;;;;;;;;5031551;28;20037;-63
2024/01/20 02:06:31;;;;;;;11.98;3.22;;;;;;;;;;5031495;28;20156;-63
2024/01/20 02:08:58;;;;;;;11.55;3.13;;;2.60;99.90;;;;;;5034805;28;20077;-63
2024/01/20 02:11:25;;;;;;;11.02;3.28;;;;;;;;;;5038412;28;20033;-64
2024/01/20 02:13:51;;;;;;;11.18;3.22;;;;;;;;;;5031046;28;20095;-63
2024/01/20 02:16:17;;;;;;;8.52;3.05;;;;;;;;;;5033168;28;20065;-64
2024/01/20 02:18:43;;;;;;;11.93;3.78;;;;;;;;;;5037094;28;20041;-64
2024/01/20 02:21:09;;;;;;;10.35;3.10;;;;;;;;;;5028250;28;20041;-64
2024/01/20 02:23:40;;;;;;;12.48;3.47;;;;;;;;;;5037187;28;20547;-63
2024/01/20 02:26:07;;;;;;;11.75;3.45;;;;;;;;;;5036294;28;20386;-63
2024/01/20 02:28:33;;;;;;;11.57;3.95;;;;;;;;;;5016276;28;20041;-63
2024/01/20 02:30:59;;;;;;;13.93;3.38;;;2.10;99.90;;;;;;5030261;28;20053;-63
2024/01/20 02:33:25;;;;;;;10.30;3.83;;;;;;;;;;5035407;28;20044;-63
2024/01/20 02:35:51;;;;;;;11.73;3.08;;;;;;;;;;5030948;28;20121;-63
2024/01/20 02:38:16;;;;;;;9.20;3.72;;;2.10;99.90;;;;;;5030568;28;20041;-63
2024/01/20 02:40:42;;;;;;;9.43;3.80;;;;;;;;;;5029809;28;20045;-64
2024/01/20 02:43:08;;;;;;;13.35;3.65;;;;;;;;;;5031982;28;20417;-63
2024/01/20 02:45:34;;;;;;;14.90;4.10;;;2.10;99.90;;;;;;5031192;28;20172;-63
2024/01/20 02:48:00;;;;;;;16.48;3.78;;;;;;;;;;5029236;28;20125;-63
2024/01/20 02:50:26;;;;;;;13.45;4.07;;;;;;;;;;5028612;28;20033;-63
2024/01/20 02:52:53;;;;;;;16.48;4.57;;;;;;;;;;5030592;28;20033;-62
2024/01/20 02:55:19;;;;;;;8.02;3.20;;;;;;;;;;5030971;28;20501;-63
2024/01/20 02:57:45;;;;;;;9.85;3.33;;;;;;;;;;5008784;28;20573;-63
2024/01/20 03:00:11;;;;;;;13.30;4.10;;;;;;;;;;5026882;28;20126;-63
2024/01/20 03:02:36;;;;;;;10.20;3.17;;;1.90;99.90;;;;;;5027503;28;20040;-64
2024/01/20 03:05:02;;;;;;;10.40;4.07;;;;;;;;;;5029855;28;20112;-63
2024/01/20 03:07:28;;;;;;;11.32;3.70;;;;;;;;;;5023913;28;20046;-63
2024/01/20 03:09:55;;;;;;;13.02;3.92;;;;;;;;;;5028004;28;20519;-65
2024/01/20 03:12:21;;;;;;;13.45;3.95;;;;;;;;;;5018888;28;20652;-63
2024/01/20 03:14:47;;;;;;;10.38;3.70;;;;;;;;;;5021930;28;20095;-64
2024/01/20 03:17:13;;;;;;;14.27;4.03;;;;;;;;;;5028874;28;20034;-64
2024/01/20 03:19:39;;;;;;;17.08;4.82;;;;;;;;;;5027278;28;20040;-64
2024/01/20 03:22:05;;;;;;;15.43;4.43;;;;;;;;;;5013737;28;20049;-64
2024/01/20 03:24:31;;;;;;;12.93;4.28;;;;;;;;;;5029683;28;20116;-64
2024/01/20 03:26:57;;;;;;;10.43;3.80;;;;;;;;;;5029592;28;20044;-64
2024/01/20 03:29:23;;;;;;;12.10;4.30;;;;;;;;;;5034892;28;20549;-64
2024/01/20 03:31:49;;;;;;;9.43;3.63;;;1.60;99.90;;;;;;5034653;28;21050;-64
2024/01/20 03:34:15;;;;;;;12.50;4.22;;;;;;;;;;5030018;28;20040;-64
2024/01/20 03:36:44;;;;;;;10.93;3.95;;;;;;;;;;5028737;28;20041;-64
2024/01/20 03:39:10;;;;;;;17.00;4.40;;;1.70;99.90;;;;;;5014741;28;20092;-63
2024/01/20 03:41:36;;;;;;;10.00;3.58;;;;;;;;;;5029139;28;20045;-64
2024/01/20 03:44:02;;;;;;;12.82;3.83;;;1.60;99.90;;;;;;5029230;28;20037;-64
2024/01/20 03:46:28;;;;;;;10.13;4.05;;;1.50;99.90;;;;;;5030118;28;20030;-64
2024/01/20 03:48:54;;;;;;;14.00;4.18;;;;;;;;;;5029034;28;20411;-63
2024/01/20 03:51:26;;;;;;;12.90;4.63;;;;;;;;;;5024065;28;20037;-63
2024/01/20 03:53:52;;;;;;;10.15;4.55;;;;;;;;;;5033130;28;20517;-64
2024/01/20 03:56:18;;;;;;;13.48;5.25;;;;;;;;;;5015187;28;20057;-64
2024/01/20 03:58:44;;;;;;;12.00;4.78;;;;;;;;;;5028373;28;20124;-63
2024/01/20 04:01:10;;;;;;;13.38;5.50;;;;;;;;;;5023629;28;20044;-64
2024/01/20 04:03:36;;;;;;;14.95;6.30;;;;;;;;;;5028060;28;20033;-63
2024/01/20 04:06:06;;;;;;;13.43;6.03;;;;;;;;;;5028502;28;20041;-65
2024/01/20 04:08:32;;;;;;;17.98;7.10;;;;;;;;;;5020799;28;20045;-65
2024/01/20 04:10:58;;;;;;;14.43;6.97;;;;;;;;;;5028742;28;20033;-63
2024/01/20 04:13:24;;;;;;;13.82;6.68;;;;;;;;;;5030481;28;20045;-63
2024/01/20 04:15:50;;;;;;;14.88;7.10;;;;;;;;;;5025675;28;20041;-65
2024/01/20 04:18:15;;;;;;;18.08;7.40;;;1.60;99.90;;;;;;5026144;28;20516;-63
2024/01/20 04:20:42;;;;;;;11.98;6.80;;;;;;;;;;5028059;28;20038;-63
2024/01/20 04:23:08;;;;;;;17.85;7.80;;;;;;;;;;5006048;28;20613;-63
2024/01/20 04:25:34;;;;;;;12.05;7.32;;;;;;;;;;5015580;28;20053;-64
2024/01/20 04:28:00;;;;;;;11.02;6.55;;;;;;;;;;5033023;28;20116;-64
2024/01/20 04:30:26;;;;;;;13.13;7.32;;;;;;;;;;5025507;28;20120;-64
2024/01/20 04:32:52;;;;;;;16.80;7.70;;;;;;;;;;5024648;28;20120;-63
2024/01/20 04:35:18;;;;;;;19.05;7.88;;;1.50;99.90;;;;;;5028262;28;20101;-63
2024/01/20 04:37:44;;;;;;;19.40;7.85;;;;;;;;;;5025214;28;20034;-64
2024/01/20 04:40:10;;;;;;;15.13;7.95;;;;;;;;;;5029049;28;20041;-65
2024/01/20 04:42:36;;;;;;;17.25;8.55;;;;;;;;;;5028130;28;20043;-64
2024/01/20 04:45:04;;;;;;;19.08;9.57;;;;;;;;;;5027999;28;20650;-63
2024/01/20 04:47:31;;;;;;;18.30;9.85;;;;;;;;;;5036163;28;20581;-66
2024/01/20 04:49:57;;;;;;;18.55;10.30;;;;;;;;;;5028900;28;20033;-65
2024/01/20 04:52:23;;;;;;;19.83;11.73;;;;;;;;;;5031026;28;20037;-65
2024/01/20 04:54:49;;;;;;;21.23;11.68;;;;;;;;;;5026542;28;20034;-64
2024/01/20 04:57:15;;;;;;;20.20;12.45;;;;;;;;;;5038336;28;20029;-64
2024/01/20 04:59:41;;;;;;;18.10;12.77;;;1.10;99.90;;;;;;5037990;28;20044;-64
2024/01/20 05:02:07;;;;;;;22.42;13.73;;;;;;;;;;5030839;28;20115;-64
2024/01/20 05:04:33;;;;;;;22.00;13.93;;;;;;;;;;5032176;28;20052;-63
2024/01/20 05:06:59;;;;;;;20.45;13.65;;;;;;;;;;5034462;28;20037;-64
2024/01/20 05:09:25;;;;;;;19.45;14.05;;;;;;;;;;5028818;28;20116;-64
2024/01/20 05:11:51;;;;;;;22.02;13.48;;;;;;;;;;5032101;28;20124;-64
2024/01/20 05:14:17;;;;;;;18.48;12.50;;;;;;;;;;5032202;28;20029;-64
2024/01/20 05:16:43;;;;;;;21.00;14.52;;;;;;;;;;5033292;28;20076;-65
2024/01/20 05:19:09;;;;;;;18.92;12.68;;;;;;;;;;5035505;28;20068;-65
2024/01/20 05:21:37;;;;;;;17.02;11.40;;;;;;;;;;5029761;28;20033;-64
2024/01/20 05:24:03;;;;;;;20.05;13.70;;;;;;;;;;5034650;28;20138;-64
2024/01/20 05:26:30;;;;;;;21.90;12.93;;;0.80;99.90;;;;;;5035112;28;20039;-64
2024/01/20 05:28:56;;;;;;;18.73;11.98;;;0.80;99.90;;;;;;5026238;28;20560;-65
2024/01/20 05:31:24;;;;;;;20.30;12.63;;;;;;;;;;5032421;28;20029;-66
2024/01/20 05:33:50;;;;;;;20.80;11.55;;;;;;;;;;5029846;28;20046;-65
2024/01/20 05:36:16;;;;;;;19.45;10.43;;;;;;;;;;5034596;28;20037;-64
2024/01/20 05:38:42;;;;;;;16.65;9.15;;;;;;;;;;5015813;28;20049;-64
2024/01/20 05:41:08;;;;;;;14.77;9.27;;;;;;;;;;5030969;28;20089;-65
2024/01/20 05:43:34;;;;;;;16.80;8.38;;;;;;;;;;5027206;28;20072;-64
2024/01/20 05:46:05;;;;;;;19.52;10.35;;;;;;;;;;5010769;28;20052;-65
2024/01/20 05:48:32;;;;;;;16.80;8.10;;;;;;;;;;5031245;28;20033;-65
2024/01/20 05:50:58;;;;;;;12.85;7.90;;;1.10;99.90;;;;;;5033432;28;20048;-65
2024/01/20 05:53:24;;;;;;;16.80;8.52;;;;;;;;;;5031630;28;20034;-64
2024/01/20 05:55:50;;;;;;;18.27;9.10;;;;;;;;;;5034764;28;20107;-65
2024/01/20 05:58:16;;;;;;;19.58;10.45;;;;;;;;;;5029193;28;20120;-65
2024/01/20 06:00:42;;;;;;;16.02;11.85;;;;;;;;;;5029357;28;20048;-65
2024/01/20 06:03:08;;;;;;;19.08;11.07;;;;;;;;;;5032217;28;20056;-64
2024/01/20 06:05:34;;;;;;;17.48;11.18;;;1.20;99.90;;;;;;5030899;28;20095;-64
2024/01/20 06:08:00;;;;;;;17.25;10.75;;;;;;;;;;5029491;28;20501;-64
2024/01/20 06:10:26;;;;;;;19.90;10.55;;;;;;;;;;5030903;28;20081;-64
2024/01/20 06:12:52;;;;;;;16.92;10.55;;;1.40;99.90;;;;;;5031684;28;20464;-65
2024/01/20 06:15:18;;;;;;;20.48;10.30;;;;;;;;;;5029758;28;20137;-64
2024/01/20 06:17:44;;;;;;;17.10;10.05;;;;;;;;;;5025739;28;20136;-64
2024/01/20 06:20:10;;;;;;;18.20;8.48;;;;;;;;;;5027916;28;20049;-64
2024/01/20 06:22:39;;;;;;;16.45;9.07;;;;;;;;;;5029166;28;20064;-64
2024/01/20 06:25:04;;;;;;;15.70;7.95;;;1.50;99.90;;;;;;5014580;28;20064;-64
2024/01/20 06:27:30;;;;;;;14.20;7.18;;;;;;;;;;5030222;28;20084;-65
2024/01/20 06:29:56;;;;;;;16.98;6.88;;;;;;;;;;5029841;28;20408;-65
2024/01/20 06:32:22;;;;;;;12.65;7.07;;;;;;;;;;5031653;28;20647;-64
2024/01/20 06:34:49;;;;;;;13.63;6.05;;;;;;;;;;5015493;28;20469;-64
2024/01/20 06:37:15;;;;;;;11.65;6.45;;;;;;;;;;5030692;28;20037;-66
2024/01/20 06:39:42;;;;;;;15.20;8.20;;;;;;;;;;5030792;28;20122;-64
2024/01/20 06:42:08;;;;;;;16.73;7.53;;;;;;;;;;5031196;28;20045;-64
2024/01/20 06:44:34;;;;;;;12.80;6.38;;;;;;;;;;5027164;28;20493;-64
2024/01/20 06:47:00;;;;;;;16.20;7.28;;;1.70;99.90;;;;;;5033164;28;20044;-64
2024/01/20 06:49:26;;;;;;;16.08;7.20;;;;;;;;;;5029764;28;20037;-64
2024/01/20 06:51:52;;;;;;;16.60;8.77;;;;;;;;;;5030858;28;20045;-63
2024/01/20 06:54:18;;;;;;;19.20;10.35;;;;;;;;;;5030738;28;20123;-64
2024/01/20 06:56:44;;;;;;;16.73;11.38;;;;;;;;;;5030216;28;20092;-64
2024/01/20 06:59:10;;;;;;;22.73;14.30;;;;;;;;;;5030063;28;20041;-64
2024/01/20 07:01:36;;;;;;;23.92;14.25;;;0.90;99.90;;;;;;5032447;28;20520;-64
2024/01/20 07:04:02;;;;;;;20.33;13.65;;;;;;;;;;5030105;28;20033;-64
2024/01/20 07:06:28;;;;;;;24.80;13.75;;;;;;;;;;5030528;28;20137;-65
2024/01/20 07:08:54;;;;;;;23.27;12.98;;;;;;;;;;5026392;28;20037;-64
2024/01/20 07:11:21;;;;;;;22.67;12.52;;;;;;;;;;5027476;28;20076;-65
2024/01/20 07:13:47;;;;;;;25.85;12.10;;;;;;;;;;5029284;28;20060;-65
2024/01/20 07:16:14;;;;;;;20.52;11.63;;;;;;;;;;5030894;28;20055;-65
2024/01/20 07:18:41;;;;;;;18.13;11.00;;;;;;;;;;5028680;28;20045;-64
2024/01/20 07:21:07;;;;;;;23.60;10.65;;;;;;;;;;5028646;28;20132;-64
2024/01/20 07:23:33;;;;;;;18.85;10.75;;;;;;;;;;5011420;28;20033;-64
2024/01/20 07:25:59;;;;;;;20.75;11.30;;;;;;;;;;5023159;28;20113;-64
2024/01/20 07:28:26;;;;;;;18.42;11.13;;;1.10;99.90;;;;;;5028402;28;20112;-64
2024/01/20 07:30:52;;;;;;;25.00;13.10;;;;;;;;;;5018625;28;20302;-64
2024/01/20 07:33:18;;;;;;;21.95;12.98;;;;;;;;;;5021986;28;20040;-65
2024/01/20 07:35:45;;;;;;;25.35;15.20;;;;;;;;;;5002305;28;20041;-64
2024/01/20 07:38:12;;;;;;;30.23;16.75;;;;;;;;;;5024199;28;20555;-64
2024/01/20 07:40:38;;;;;;;30.35;19.08;;;;;;;;;;5019155;28;20038;-65
2024/01/20 07:43:04;;;;;;;28.30;19.15;;;;;;;;;;5025543;28;20513;-65
2024/01/20 07:45:31;;;;;;;38.33;21.08;;;;;;;;;;5024421;28;20033;-64
2024/01/20 07:47:57;;;;;;;33.85;20.50;;;;;;;;;;5026706;28;20038;-65
2024/01/20 07:50:23;;;;;;;29.88;19.20;;;;;;;;;;5021560;28;20140;-64
2024/01/20 07:52:49;;;;;;;34.33;20.70;;;;;;;;;;5025576;28;20112;-64
2024/01/20 07:55:15;;;;;;;32.38;20.08;;;;;;;;;;5028997;28;20078;-64
2024/01/20 07:57:42;;;;;;;36.10;21.88;;;;;;;;;;5025169;28;20080;-65
2024/01/20 08:00:09;;;;;;;36.30;22.70;;;;;;;;;;5023072;28;20069;-66
2024/01/20 08:02:35;;;;;;;35.17;22.98;;;;;;;;;;5023010;28;20040;-65
2024/01/20 08:05:01;;;;;;;40.33;22.52;;;;;;;;;;5026525;28;20408;-64
2024/01/20 08:07:27;;;;;;;36.95;23.10;;;1.00;99.90;;;;;;5029031;28;20038;-64
2024/01/20 08:09:53;;;;;;;41.28;25.02;;;;;;;;;;5008438;28;20052;-65
2024/01/20 08:12:19;;;;;;;46.53;24.38;;;1.00;99.90;;;;;;5027932;28;20037;-65
2024/01/20 08:14:45;;;;;;;42.60;27.45;;;;;;;;;;5027462;28;20041;-64
2024/01/20 08:17:11;;;;;;;46.55;25.95;;;;;;;;;;5027932;28;20110;-65
2024/01/20 08:19:37;;;;;;;42.30;24.92;;;;;;;;;;5026635;28;20033;-65
2024/01/20 08:22:04;;;;;;;48.20;26.42;;;;;;;;;;5024938;28;20034;-64
2024/01/20 08:24:30;;;;;;;44.00;26.20;;;;;;;;;;5024159;28;20037;-65
2024/01/20 08:26:56;;;;;;;45.95;27.55;;;;;;;;;;5021143;28;20107;-65
2024/01/20 08:29:22;;;;;;;47.05;28.42;;;;;;;;;;5025474;28;20037;-65
2024/01/20 08:31:48;;;;;;;40.55;26.60;;;;;;;;;;5024471;28;20038;-65
2024/01/20 08:34:14;;;;;;;43.80;26.92;;;;;;;;;;5023099;28;20567;-65
2024/01/20 08:36:40;;;;;;;40.85;26.00;;;;;;;;;;5027041;28;20255;-65
2024/01/20 08:39:07;;;;;;;51.17;26.55;;;;;;;;;;5026822;28;20034;-65
2024/01/20 08:41:33;;;;;;;42.00;24.70;;;;;;;;;;5025044;28;20037;-64
2024/01/20 08:43:59;;;;;;;43.47;27.08;;;;;;;;;;5028845;28;20030;-65
2024/01/20 08:46:25;;;;;;;36.67;24.13;;;;;;;;;;5027693;28;20039;-65
2024/01/20 08:48:51;;;;;;;44.72;25.50;;;;;;;;;;5026738;28;20519;-65
2024/01/20 08:51:19;;;;;;;40.78;25.35;;;;;;;;;;5025466;28;20033;-65
2024/01/20 08:53:45;;;;;;;44.40;24.75;;;;;;;;;;5025411;28;20095;-65
2024/01/20 08:56:11;;;;;;;46.22;25.88;;;;;;;;;;5027785;28;20486;-65
2024/01/20 08:58:37;;;;;;;45.22;24.25;;;1.50;99.90;;;;;;5007918;28;20038;-65
2024/01/20 09:01:03;;;;;;;41.97;25.42;;;;;;;;;;5026869;28;20040;-65
2024/01/20 09:03:28;;;;;;;42.38;24.98;;;1.70;99.90;;;;;;5026401;28;20405;-65
2024/01/20 09:05:54;;;;;;;40.85;24.58;;;;;;;;;;5023950;28;20034;-65
2024/01/20 09:08:20;;;;;;;44.03;26.20;;;;;;;;;;5020850;28;20034;-65
2024/01/20 09:10:46;;;;;;;47.90;25.27;;;;;;;;;;5025429;28;20049;-65
2024/01/20 09:13:13;;;;;;;48.72;28.17;;;;;;;;;;5024063;28;20041;-65
2024/01/20 09:15:39;;;;;;;47.80;24.40;;;;;;;;;;5009097;28;20199;-65
2024/01/20 09:18:05;;;;;;;42.15;23.95;;;;;;;;;;5023554;28;20533;-64
2024/01/20 09:20:31;;;;;;;42.03;24.35;;;;;;;;;;5021790;28;20065;-64
2024/01/20 09:23:01;;;;;;;39.05;26.00;;;;;;;;;;5027167;28;20038;-65
2024/01/20 09:25:27;;;;;;;41.35;23.58;;;1.70;99.90;;;;;;4992998;28;20084;-64
2024/01/20 09:27:53;;;;;;;35.85;24.25;;;;;;;;;;5007635;28;20363;-64
2024/01/20 09:30:19;;;;;;;40.35;23.25;;;;;;;;;;5023502;28;20528;-65
2024/01/20 09:32:46;;;;;;;40.40;23.48;;;;;;;;;;5012783;28;20034;-64
2024/01/20 09:35:12;;;;;;;36.03;22.67;;;;;;;;;;5026342;28;20511;-65
2024/01/20 09:37:38;;;;;;;36.65;21.17;;;;;;;;;;5023315;28;20124;-65
2024/01/20 09:40:08;;;;;;;37.72;24.52;;;;;;;;;;5022657;28;20045;-65
2024/01/20 09:42:34;;;;;;;39.13;23.20;;;1.80;99.90;;;;;;5026640;28;20099;-64
2024/01/20 09:45:00;;;;;;;34.25;22.30;;;;;;;;;;5028539;28;20041;-65
2024/01/20 09:47:26;;;;;;;39.58;21.33;;;;;;;;;;5031027;28;20094;-65
2024/01/20 09:49:53;;;;;;;37.78;23.10;;;;;;;;;;5023825;28;21264;-65
2024/01/20 09:52:26;;;;;;;41.15;21.58;;;;;;;;;;5032405;28;20091;-64
2024/01/20 09:55:06;;;;;;;31.90;17.63;;;;;;;;;;5032455;28;20095;-64
2024/01/20 09:57:33;;;;;;;40.60;23.17;;;;;;;;;;5033423;28;20051;-65
2024/01/20 10:00:00;;;;;;;42.67;22.98;;;;;;;;;;5030341;28;20064;-64
2024/01/20 10:02:29;;;;;;;34.72;21.92;;;;;;;;;;5033040;28;20033;-64
2024/01/20 10:05:00;;;;;;;37.58;21.85;;;;;;;;;;5033341;28;20068;-64
2024/01/20 10:07:27;;;;;;;39.25;24.15;;;;;;;;;;5028905;28;20039;-64
2024/01/20 10:09:53;;;;;;;34.70;21.15;;;;;;;;;;5027965;28;20041;-64
2024/01/20 10:12:19;;;;;;;37.55;21.13;;;;;;;;;;5032258;28;20608;-64
2024/01/20 10:14:45;;;;;;;38.22;22.58;;;;;;;;;;5031305;28;20520;-64
2024/01/20 10:17:11;;;;;;;38.17;21.70;;;;;;;;;;5032061;28;20033;-64
2024/01/20 10:19:38;;;;;;;37.53;21.52;;;;;;;;;;5026677;28;20578;-65
2024/01/20 10:22:07;;;;;;;36.42;18.42;;;2.30;99.90;;;;;;5031203;28;20045;-65
2024/01/20 10:24:33;;;;;;;37.88;20.33;;;;;;;;;;5031621;28;20108;-64
2024/01/20 10:27:00;;;;;;;35.65;18.98;;;;;;;;;;5031826;28;20129;-64
2024/01/20 10:29:26;;;;;;;38.00;21.55;;;;;;;;;;5027422;28;20040;-64
2024/01/20 10:31:52;;;;;;;35.17;21.67;;;;;;;;;;5030516;28;20045;-64
2024/01/20 10:34:19;;;;;;;30.50;17.88;;;;;;;;;;5030469;28;20532;-65
2024/01/20 10:36:45;;;;;;;37.28;22.27;;;2.50;99.90;;;;;;5031267;28;20457;-64
2024/01/20 10:39:15;;;;;;;36.75;18.35;;;;;;;;;;5027353;28;20133;-64
2024/01/20 10:41:42;;;;;;;32.63;18.55;;;;;;;;;;5030396;28;20038;-64
2024/01/20 10:44:11;;;;;;;34.28;18.17;;;;;;;;;;5031117;28;20108;-64
2024/01/20 10:46:40;;;;;;;32.58;19.27;;;;;;;;;;5031387;28;20033;-64
2024/01/20 10:49:08;;;;;;;32.28;18.33;;;;;;;;;;5020588;28;20400;-64
2024/01/20 10:51:35;;;;;;;32.25;17.38;;;2.60;99.90;;;;;;5030560;28;20037;-64
2024/01/20 10:54:02;;;;;;;34.85;17.88;;;;;;;;;;5030821;28;20524;-64
2024/01/20 10:56:29;;;;;;;34.30;19.80;;;;;;;;;;5031249;28;20041;-65
2024/01/20 10:59:10;;;;;;;35.25;20.40;;;;;;;;;;5029202;28;20516;-64
2024/01/20 11:01:40;;;;;;;31.00;19.63;;;;;;;;;;5030224;28;20037;-64
2024/01/20 11:04:07;;;;;;;34.15;19.23;;;;;;;;;;5031420;28;20044;-64
2024/01/20 11:06:35;;;;;;;33.58;18.85;;;;;;;;;;5030982;28;20041;-65
2024/01/20 11:09:02;;;;;;;32.33;20.20;;;;;;;;;;5030061;28;20041;-64
2024/01/20 11:11:29;;;;;;;31.35;18.45;;;2.60;99.90;;;;;;5027247;28;20400;-64
2024/01/20 11:13:59;;;;;;;34.15;19.65;;;;;;;;;;5029967;28;20135;-64
2024/01/20 11:16:29;;;;;;;34.88;19.65;;;;;;;;;;5030943;28;20043;-64
2024/01/20 11:19:16;;;;;;;34.97;20.48;;;;;;;;;;5011722;28;20049;-65
2024/01/20 11:21:42;;;;;;;34.67;20.00;;;;;;;;;;5029273;28;20064;-64
2024/01/20 11:24:08;;;;;;;32.40;19.50;;;;;;;;;;5030862;28;20033;-64
2024/01/20 11:26:35;;;;;;;35.38;20.63;;;3.30;99.90;;;;;;5030751;28;20439;-64
2024/01/20 11:29:03;;;;;;;35.33;21.23;;;;;;;;;;5008376;28;20073;-65
2024/01/20 11:31:33;;;;;;;37.22;22.55;;;2.20;99.90;;;;;;5029614;28;20041;-65
2024/01/20 11:34:00;;;;;;;32.47;20.00;;;;;;;;;;5029767;28;20037;-64
2024/01/20 11:36:29;;;;;;;32.83;19.63;;;;;;;;;;5029964;28;20042;-65
2024/01/20 11:39:03;;;;;;;36.85;21.70;;;;;;;;;;5028348;28;20130;-66
2024/01/20 11:41:29;;;;;;;44.38;19.92;;;2.70;99.90;;;;;;5029674;28;20041;-64
2024/01/20 11:43:54;;;;;;;36.20;22.85;;;2.60;99.90;;;;;;5028098;28;20041;-65
2024/01/20 11:46:20;;;;;;;38.75;23.63;;;;;;;;;;5012116;28;20381;-65
2024/01/20 11:48:47;;;;;;;39.80;22.67;;;;;;;;;;5032487;28;20037;-65
2024/01/20 11:51:13;;;;;;;34.13;20.08;;;;;;;;;;5028530;28;20079;-65
2024/01/20 11:53:39;;;;;;;41.17;21.33;;;;;;;;;;5012181;28;20053;-65
2024/01/20 11:56:05;;;;;;;37.05;22.33;;;;;;;;;;5028924;28;20099;-64
2024/01/20 11:58:31;;;;;;;34.17;19.65;;;;;;;;;;5029589;28;20068;-66
2024/01/20 12:00:58;;;;;;;38.63;20.95;;;;;;;;;;5028731;28;20095;-65
2024/01/20 12:03:24;;;;;;;34.63;20.88;;;;;;;;;;5012359;28;20037;-65
2024/01/20 12:05:51;;;;;;;34.80;20.25;;;;;;;;;;5011483;28;20448;-64
2024/01/20 12:08:18;;;;;;;38.90;22.15;;;;;;;;;;5011417;28;20595;-64
2024/01/20 12:10:45;;;;;;;39.05;21.83;;;2.50;99.90;;;;;;5027563;28;20049;-64
2024/01/20 12:13:12;;;;;;;32.92;19.83;;;;;;;;;;5014575;28;20042;-64
2024/01/20 12:15:39;;;;;;;40.50;21.13;;;;;;;;;;5029854;28;20041;-64
2024/01/20 12:18:05;;;;;;;31.05;18.65;;;;;;;;;;5014454;28;20049;-65
2024/01/20 12:20:32;;;;;;;38.00;20.95;;;;;;;;;;5027141;28;20374;-65
2024/01/20 12:23:00;;;;;;;34.00;20.88;;;;;;;;;;5029327;28;20060;-64
2024/01/20 12:25:32;;;;;;;35.35;19.80;;;;;;;;;;5029550;28;20040;-64
2024/01/20 12:27:59;;;;;;;32.72;18.92;;;;;;;;;;5029378;28;20112;-64
2024/01/20 12:30:26;;;;;;;35.30;18.98;;;;;;;;;;5028970;28;20041;-64
2024/01/20 12:32:52;;;;;;;36.80;19.63;;;;;;;;;;5029429;28;20049;-65
2024/01/20 12:35:18;;;;;;;33.08;18.42;;;;;;;;;;5029847;28;20183;-65
2024/01/20 12:37:44;;;;;;;32.97;18.00;;;;;;;;;;5029489;28;20049;-65
2024/01/20 12:40:11;;;;;;;29.75;16.83;;;;;;;;;;5030105;28;20041;-65
2024/01/20 12:42:37;;;;;;;29.27;17.00;;;;;;;;;;5029231;28;20037;-65
2024/01/20 12:45:04;;;;;;;30.40;17.85;;;;;;;;;;5034781;28;20397;-65
2024/01/20 12:47:30;;;;;;;32.45;16.90;;;2.80;99.90;;;;;;5030034;28;20030;-65
2024/01/20 12:49:56;;;;;;;28.33;15.30;;;;;;;;;;5009968;28;20046;-65
2024/01/20 12:52:22;;;;;;;28.95;17.58;;;2.70;99.90;;;;;;5029004;28;20064;-65
2024/01/20 12:54:48;;;;;;;30.85;16.92;;;;;;;;;;5029168;28;20497;-65
2024/01/20 12:57:14;;;;;;;28.88;16.10;;;;;;;;;;5034278;28;20128;-65
2024/01/20 12:59:40;;;;;;;29.95;17.33;;;;;;;;;;5026847;28;20135;-65
2024/01/20 13:02:06;;;;;;;32.90;17.25;;;;;;;;;;5027619;28;20048;-64
2024/01/20 13:04:32;;;;;;;30.83;16.73;;;;;;;;;;5029012;28;20033;-64
2024/01/20 13:06:58;;;;;;;32.35;15.77;;;2.40;99.90;;;;;;5033954;28;20404;-64
2024/01/20 13:09:24;;;;;;;29.48;15.55;;;;;;;;;;5027995;28;20041;-64
2024/01/20 13:11:50;;;;;;;31.05;15.95;;;;;;;;;;5028572;28;20077;-64
2024/01/20 13:14:16;;;;;;;29.75;16.38;;;2.20;99.90;;;;;;5028600;28;20067;-64
2024/01/20 13:16:42;;;;;;;32.05;16.65;;;2.40;99.90;;;;;;5013175;28;20408;-64
2024/01/20 13:19:08;;;;;;;32.85;17.95;;;;;;;;;;5032028;28;20386;-65
2024/01/20 13:21:34;;;;;;;28.27;15.60;;;;;;;;;;5032141;28;20045;-64
2024/01/20 13:24:00;;;;;;;30.15;16.40;;;2.40;99.90;;;;;;5032145;28;20118;-64
2024/01/20 13:26:26;;;;;;;30.42;16.95;;;;;;;;;;5032432;28;20480;-64
2024/01/20 13:28:52;;;;;;;27.88;14.70;;;2.30;99.90;;;;;;5031455;28;20033;-64
2024/01/20 13:31:21;;;;;;;24.02;13.93;;;;;;;;;;5037036;28;20042;-64
2024/01/20 13:33:47;;;;;;;27.77;14.27;;;;;;;;;;5036580;28;20045;-64
2024/01/20 13:36:13;;;;;;;27.25;16.38;;;;;;;;;;5032402;28;20129;-64
2024/01/20 13:38:38;;;;;;;24.05;14.18;;;2.40;99.90;;;;;;5031975;28;20048;-65
2024/01/20 13:41:08;;;;;;;30.40;15.27;;;;;;;;;;5031476;28;20038;-65
2024/01/20 13:43:34;;;;;;;27.90;17.05;;;;;;;;;;5032559;28;20117;-65
2024/01/20 13:46:00;;;;;;;27.15;14.13;;;;;;;;;;5031988;28;20041;-63
2024/01/20 13:48:26;;;;;;;26.38;13.48;;;;;;;;;;5031321;28;20048;-64
2024/01/20 13:50:52;;;;;;;23.25;12.65;;;;;;;;;;5029538;28;20128;-64
2024/01/20 13:53:19;;;;;;;25.98;14.02;;;;;;;;;;5028306;28;20075;-64
2024/01/20 13:55:45;;;;;;;23.48;11.93;;;2.90;99.90;;;;;;5031335;28;20037;-64
2024/01/20 13:58:11;;;;;;;22.33;12.00;;;;;;;;;;5031405;28;20950;-64
2024/01/20 14:00:39;;;;;;;23.30;13.07;;;;;;;;;;5030950;28;20580;-65
2024/01/20 14:03:05;;;;;;;21.20;11.80;;;;;;;;;;5028354;28;20408;-64